createdAt,value
2019-05-05T00:00:11.366Z,26.04
2019-05-05T00:01:31.856Z,26.07
2019-05-05T00:02:44.827Z,26.05
2019-05-05T00:03:51.295Z,26.01
2019-05-05T00:04:57.361Z,26.06
2019-05-05T00:06:00.671Z,26.13
2019-05-05T00:07:04.273Z,26.14
2019-05-05T00:08:05.596Z,26.17
2019-05-05T00:09:07.093Z,26.17
2019-05-05T00:10:10.784Z,26.23
2019-05-05T00:11:30.440Z,26.19
2019-05-05T00:12:34.331Z,26.19
2019-05-05T00:13:46.952Z,26.19
2019-05-05T00:14:56.259Z,26.21
2019-05-05T00:15:59.580Z,26.17
2019-05-05T00:17:03.394Z,26.19
2019-05-05T00:18:06.293Z,26.22
2019-05-05T00:19:07.973Z,26.22
2019-05-05T00:20:09.554Z,26.24
2019-05-05T00:21:11.952Z,26.27
2019-05-05T00:22:15.167Z,26.28
2019-05-05T00:23:16.758Z,26.27
2019-05-05T00:24:18.172Z,26.27
2019-05-05T00:25:19.585Z,26.30
2019-05-05T00:26:21.008Z,26.30
2019-05-05T00:27:22.518Z,26.27
2019-05-05T00:28:24.886Z,26.22
2019-05-05T00:29:26.411Z,26.24
2019-05-05T00:30:27.885Z,26.27
2019-05-05T00:31:29.279Z,26.24
2019-05-05T00:32:30.680Z,26.23
2019-05-05T00:33:34.234Z,26.21
2019-05-05T00:34:35.497Z,26.21
2019-05-05T00:35:37.012Z,26.19
2019-05-05T00:36:38.524Z,26.15
2019-05-05T00:37:40.023Z,26.15
2019-05-05T00:38:41.401Z,26.22
2019-05-05T00:39:45.022Z,26.21
2019-05-05T00:40:46.281Z,26.22
2019-05-05T00:41:47.675Z,26.24
2019-05-05T00:42:49.066Z,26.24
2019-05-05T00:43:50.475Z,26.33
2019-05-05T00:44:51.884Z,26.29
2019-05-05T00:45:55.682Z,26.23
2019-05-05T00:46:59.219Z,26.23
2019-05-05T00:48:06.508Z,26.28
2019-05-05T00:49:07.986Z,26.23
2019-05-05T00:50:11.449Z,26.27
2019-05-05T00:51:14.978Z,26.29
2019-05-05T00:52:16.235Z,26.35
2019-05-05T00:53:17.618Z,26.28
2019-05-05T00:54:19.025Z,26.31
2019-05-05T00:55:20.436Z,26.34
2019-05-05T00:56:22.154Z,26.33
2019-05-05T00:57:24.305Z,26.41
2019-05-05T00:58:26.980Z,26.41
2019-05-05T00:59:29.562Z,26.42
2019-05-05T01:00:41.960Z,26.37
2019-05-05T01:01:55.267Z,26.35
2019-05-05T01:02:57.397Z,26.37
2019-05-05T01:03:59.490Z,26.37
2019-05-05T01:05:04.482Z,26.40
2019-05-05T01:06:15.071Z,26.42
2019-05-05T01:07:16.812Z,26.42
2019-05-05T01:08:20.497Z,26.37
2019-05-05T01:09:25.193Z,26.37
2019-05-05T01:10:26.689Z,26.45
2019-05-05T01:11:28.184Z,26.39
2019-05-05T01:12:29.658Z,26.42
2019-05-05T01:13:31.165Z,26.42
2019-05-05T01:14:34.266Z,26.35
2019-05-05T01:15:35.980Z,26.38
2019-05-05T01:16:37.384Z,26.42
2019-05-05T01:17:38.798Z,26.37
2019-05-05T01:18:40.201Z,26.39
2019-05-05T01:19:41.604Z,26.38
2019-05-05T01:20:44.828Z,26.41
2019-05-05T01:21:46.350Z,26.38
2019-05-05T01:22:47.735Z,26.34
2019-05-05T01:23:49.124Z,26.36
2019-05-05T01:24:50.551Z,26.36
2019-05-05T01:25:51.917Z,26.42
2019-05-05T01:26:55.112Z,26.37
2019-05-05T01:27:56.600Z,26.42
2019-05-05T01:29:59.337Z,26.35
2019-05-05T01:31:02.621Z,26.41
2019-05-05T01:32:05.913Z,26.37
2019-05-05T01:33:11.728Z,26.36
2019-05-05T01:34:17.780Z,26.38
2019-05-05T01:35:19.177Z,26.36
2019-05-05T01:36:20.547Z,26.38
2019-05-05T01:37:35.679Z,26.38
2019-05-05T01:38:41.812Z,26.39
2019-05-05T01:39:54.261Z,26.33
2019-05-05T01:40:57.587Z,26.29
2019-05-05T01:42:01.184Z,26.29
2019-05-05T01:43:02.561Z,26.32
2019-05-05T01:44:04.884Z,26.36
2019-05-05T01:45:06.841Z,26.38
2019-05-05T01:46:08.244Z,26.35
2019-05-05T01:47:09.920Z,26.42
2019-05-05T01:48:11.329Z,26.44
2019-05-05T01:49:14.624Z,26.48
2019-05-05T01:50:20.983Z,26.47
2019-05-05T01:51:19.472Z,26.49
2019-05-05T01:52:20.859Z,26.49
2019-05-05T01:53:24.388Z,26.56
2019-05-05T01:54:25.541Z,26.50
2019-05-05T01:55:27.022Z,26.47
2019-05-05T01:56:28.511Z,26.47
2019-05-05T01:57:30.192Z,26.53
2019-05-05T01:58:34.893Z,26.54
2019-05-05T01:59:36.757Z,26.54
2019-05-05T02:00:38.253Z,26.52
2019-05-05T02:01:39.749Z,26.49
2019-05-05T02:02:41.767Z,26.50
2019-05-05T02:03:44.247Z,26.51
2019-05-05T02:04:45.780Z,26.55
2019-05-05T02:05:47.187Z,26.54
2019-05-05T02:06:48.586Z,26.58
2019-05-05T02:07:49.959Z,26.56
2019-05-05T02:08:51.352Z,26.54
2019-05-05T02:09:52.718Z,26.50
2019-05-05T02:10:54.743Z,26.53
2019-05-05T02:11:56.397Z,26.58
2019-05-05T02:12:57.810Z,26.55
2019-05-05T02:13:59.320Z,26.56
2019-05-05T02:15:00.948Z,26.54
2019-05-05T02:16:04.401Z,26.58
2019-05-05T02:17:05.857Z,26.55
2019-05-05T02:18:07.241Z,26.53
2019-05-05T02:19:08.728Z,26.49
2019-05-05T02:20:31.896Z,26.49
2019-05-05T02:21:35.303Z,26.47
2019-05-05T02:22:36.765Z,26.38
2019-05-05T02:23:38.168Z,26.52
2019-05-05T02:24:39.583Z,26.59
2019-05-05T02:25:44.937Z,26.62
2019-05-05T02:26:46.447Z,26.62
2019-05-05T02:27:47.849Z,26.56
2019-05-05T02:28:54.306Z,26.55
2019-05-05T02:29:57.704Z,26.58
2019-05-05T02:31:00.990Z,26.60
2019-05-05T02:32:16.351Z,26.61
2019-05-05T02:33:19.836Z,26.57
2019-05-05T02:34:21.240Z,26.53
2019-05-05T02:35:22.649Z,26.58
2019-05-05T02:36:25.842Z,26.63
2019-05-05T02:37:27.482Z,26.61
2019-05-05T02:38:28.880Z,26.54
2019-05-05T02:39:30.245Z,26.49
2019-05-05T02:40:35.040Z,26.52
2019-05-05T02:41:36.518Z,26.48
2019-05-05T02:42:38.718Z,26.49
2019-05-05T02:43:40.102Z,26.49
2019-05-05T02:44:45.345Z,26.49
2019-05-05T02:46:00.226Z,26.50
2019-05-05T02:47:07.190Z,26.54
2019-05-05T02:48:10.515Z,26.43
2019-05-05T02:49:15.180Z,26.45
2019-05-05T02:50:16.995Z,26.49
2019-05-05T02:51:19.980Z,26.51
2019-05-05T02:52:24.427Z,26.53
2019-05-05T02:53:33.816Z,26.61
2019-05-05T02:54:35.892Z,26.53
2019-05-05T02:55:37.680Z,26.46
2019-05-05T02:56:43.931Z,26.51
2019-05-05T02:57:45.406Z,26.54
2019-05-05T02:58:49.497Z,26.49
2019-05-05T02:59:54.020Z,26.53
2019-05-05T03:00:59.485Z,26.57
2019-05-05T03:02:05.896Z,26.59
2019-05-05T03:03:07.987Z,26.51
2019-05-05T03:04:11.083Z,26.52
2019-05-05T03:05:14.279Z,26.55
2019-05-05T03:06:16.758Z,26.59
2019-05-05T03:07:19.628Z,26.61
2019-05-05T03:08:23.774Z,26.64
2019-05-05T03:09:29.029Z,26.66
2019-05-05T03:10:30.813Z,26.59
2019-05-05T03:11:34.349Z,26.56
2019-05-05T03:12:39.276Z,26.62
2019-05-05T03:13:41.557Z,26.57
2019-05-05T03:14:44.602Z,26.54
2019-05-05T03:16:18.304Z,26.54
2019-05-05T03:17:19.900Z,26.59
2019-05-05T03:18:22.186Z,26.48
2019-05-05T03:19:25.393Z,26.56
2019-05-05T03:20:26.772Z,26.61
2019-05-05T03:21:28.169Z,26.61
2019-05-05T03:22:30.124Z,26.60
2019-05-05T03:23:33.371Z,26.59
2019-05-05T03:24:35.118Z,26.66
2019-05-05T03:25:36.600Z,26.68
2019-05-05T03:26:38.915Z,26.73
2019-05-05T03:27:40.325Z,26.74
2019-05-05T03:28:58.936Z,26.79
2019-05-05T03:30:04.694Z,26.74
2019-05-05T03:31:05.253Z,26.63
2019-05-05T03:32:11.296Z,26.65
2019-05-05T03:33:10.636Z,26.63
2019-05-05T03:34:12.106Z,26.59
2019-05-05T03:35:13.606Z,26.66
2019-05-05T03:36:15.686Z,26.71
2019-05-05T03:37:17.295Z,26.69
2019-05-05T03:38:18.804Z,26.70
2019-05-05T03:39:24.932Z,26.62
2019-05-05T03:40:28.444Z,26.65
2019-05-05T03:41:46.800Z,26.62
2019-05-05T03:42:53.579Z,26.62
2019-05-05T03:44:14.359Z,26.59
2019-05-05T03:45:20.412Z,26.56
2019-05-05T03:46:23.683Z,26.52
2019-05-05T03:47:26.594Z,26.63
2019-05-05T03:48:27.986Z,26.68
2019-05-05T03:49:29.656Z,26.70
2019-05-05T03:50:31.248Z,26.73
2019-05-05T03:51:34.549Z,26.75
2019-05-05T03:52:36.309Z,26.72
2019-05-05T03:53:37.815Z,26.76
2019-05-05T03:54:39.632Z,26.75
2019-05-05T03:55:43.770Z,26.72
2019-05-05T03:56:45.139Z,26.71
2019-05-05T03:57:46.812Z,26.65
2019-05-05T03:58:48.697Z,26.64
2019-05-05T03:59:50.283Z,26.58
2019-05-05T04:01:04.557Z,26.57
2019-05-05T04:02:20.071Z,26.60
2019-05-05T04:03:23.629Z,26.43
2019-05-05T04:04:26.243Z,26.50
2019-05-05T04:05:33.989Z,26.51
2019-05-05T04:06:37.521Z,26.54
2019-05-05T04:07:39.200Z,26.51
2019-05-05T04:08:41.193Z,26.54
2019-05-05T04:09:43.752Z,26.56
2019-05-05T04:10:45.262Z,26.59
2019-05-05T04:11:47.045Z,26.55
2019-05-05T04:12:48.713Z,26.54
2019-05-05T04:13:50.214Z,26.50
2019-05-05T04:14:54.446Z,26.46
2019-05-05T04:16:07.617Z,26.45
2019-05-05T04:17:10.896Z,26.42
2019-05-05T04:18:16.798Z,26.39
2019-05-05T04:19:20.092Z,26.43
2019-05-05T04:20:24.176Z,26.40
2019-05-05T04:21:33.201Z,26.33
2019-05-05T04:22:31.034Z,26.34
2019-05-05T04:23:33.506Z,26.39
2019-05-05T04:24:34.974Z,26.40
2019-05-05T04:25:36.460Z,26.43
2019-05-05T04:26:37.846Z,26.49
2019-05-05T04:27:39.250Z,26.38
2019-05-05T04:28:40.630Z,26.46
2019-05-05T04:29:43.912Z,26.49
2019-05-05T04:30:45.304Z,26.48
2019-05-05T04:31:46.702Z,26.47
2019-05-05T04:32:48.127Z,26.45
2019-05-05T04:33:49.520Z,26.48
2019-05-05T04:34:50.907Z,26.46
2019-05-05T04:35:54.379Z,26.43
2019-05-05T04:36:55.582Z,26.42
2019-05-05T04:37:57.004Z,26.42
2019-05-05T04:38:58.383Z,26.43
2019-05-05T04:39:59.784Z,26.33
2019-05-05T04:41:01.221Z,26.34
2019-05-05T04:42:04.881Z,26.37
2019-05-05T04:43:06.457Z,26.42
2019-05-05T04:44:07.845Z,26.42
2019-05-05T04:45:09.229Z,26.42
2019-05-05T04:46:10.713Z,26.41
2019-05-05T04:47:23.761Z,26.37
2019-05-05T04:48:27.165Z,26.32
2019-05-05T04:49:33.954Z,26.29
2019-05-05T04:50:44.101Z,26.31
2019-05-05T04:51:53.986Z,26.28
2019-05-05T04:52:57.341Z,26.31
2019-05-05T04:54:03.858Z,26.30
2019-05-05T04:55:05.485Z,26.37
2019-05-05T04:56:06.878Z,26.43
2019-05-05T04:57:08.266Z,26.47
2019-05-05T04:58:09.652Z,26.45
2019-05-05T04:59:11.040Z,26.48
2019-05-05T05:00:13.696Z,26.51
2019-05-05T05:01:15.316Z,26.44
2019-05-05T05:02:18.698Z,26.44
2019-05-05T05:03:38.349Z,26.51
2019-05-05T05:04:41.641Z,26.42
2019-05-05T05:05:44.961Z,26.38
2019-05-05T05:06:57.347Z,26.47
2019-05-05T05:07:58.762Z,26.53
2019-05-05T05:09:00.192Z,26.49
2019-05-05T05:10:04.462Z,26.50
2019-05-05T05:11:05.963Z,26.50
2019-05-05T05:12:07.347Z,26.47
2019-05-05T05:13:08.842Z,26.49
2019-05-05T05:14:11.224Z,26.58
2019-05-05T05:15:14.590Z,26.61
2019-05-05T05:16:16.208Z,26.58
2019-05-05T05:17:19.933Z,26.52
2019-05-05T05:18:23.849Z,26.51
2019-05-05T05:19:24.981Z,26.49
2019-05-05T05:20:26.397Z,26.52
2019-05-05T05:21:27.904Z,26.56
2019-05-05T05:22:29.424Z,26.56
2019-05-05T05:23:30.810Z,26.58
2019-05-05T05:24:34.314Z,26.55
2019-05-05T05:25:35.793Z,26.58
2019-05-05T05:26:38.194Z,26.59
2019-05-05T05:27:39.563Z,26.50
2019-05-05T05:28:40.975Z,26.51
2019-05-05T05:29:43.762Z,26.48
2019-05-05T05:30:46.334Z,26.53
2019-05-05T05:31:47.722Z,26.60
2019-05-05T05:32:49.214Z,26.61
2019-05-05T05:33:50.600Z,26.65
2019-05-05T05:34:54.096Z,26.72
2019-05-05T05:35:55.412Z,26.67
2019-05-05T05:36:56.829Z,26.68
2019-05-05T05:37:58.307Z,26.62
2019-05-05T05:39:03.472Z,26.61
2019-05-05T05:40:07.292Z,26.65
2019-05-05T05:41:13.748Z,26.66
2019-05-05T05:42:15.234Z,26.61
2019-05-05T05:43:21.069Z,26.58
2019-05-05T05:44:41.204Z,26.70
2019-05-05T05:45:44.498Z,26.60
2019-05-05T05:46:54.583Z,26.56
2019-05-05T05:48:06.939Z,26.61
2019-05-05T05:49:28.321Z,26.61
2019-05-05T05:50:33.803Z,26.65
2019-05-05T05:51:36.008Z,26.64
2019-05-05T05:52:37.406Z,26.68
2019-05-05T05:53:38.791Z,26.73
2019-05-05T05:54:40.344Z,26.82
2019-05-05T05:55:41.739Z,26.80
2019-05-05T05:56:44.683Z,26.73
2019-05-05T05:57:46.213Z,26.73
2019-05-05T05:58:47.597Z,26.68
2019-05-05T05:59:48.990Z,26.71
2019-05-05T06:00:50.498Z,26.62
2019-05-05T06:02:06.653Z,26.58
2019-05-05T06:02:55.287Z,26.60
2019-05-05T06:03:56.664Z,26.64
2019-05-05T06:04:58.067Z,26.65
2019-05-05T06:05:59.460Z,26.66
2019-05-05T06:07:00.952Z,26.62
2019-05-05T06:08:04.521Z,26.60
2019-05-05T06:09:06.024Z,26.58
2019-05-05T06:10:21.100Z,26.54
2019-05-05T06:11:11.305Z,26.49
2019-05-05T06:12:14.189Z,26.40
2019-05-05T06:13:16.016Z,26.30
2019-05-05T06:14:17.382Z,26.25
2019-05-05T06:15:18.781Z,26.20
2019-05-05T06:16:20.277Z,26.14
2019-05-05T06:17:23.668Z,25.99
2019-05-05T06:18:25.190Z,25.98
2019-05-05T06:19:26.702Z,25.86
2019-05-05T06:20:28.148Z,25.76
2019-05-05T06:21:29.548Z,25.71
2019-05-05T06:22:31.615Z,25.63
2019-05-05T06:23:34.429Z,25.53
2019-05-05T06:24:35.997Z,25.48
2019-05-05T06:25:38.142Z,25.45
2019-05-05T06:26:39.659Z,25.31
2019-05-05T06:27:41.071Z,25.25
2019-05-05T06:28:44.584Z,25.17
2019-05-05T06:29:45.788Z,25.12
2019-05-05T06:30:47.195Z,25.02
2019-05-05T06:31:48.588Z,24.94
2019-05-05T06:32:49.961Z,24.89
2019-05-05T06:33:51.362Z,24.82
2019-05-05T06:34:53.492Z,24.76
2019-05-05T06:35:54.938Z,24.77
2019-05-05T06:36:56.325Z,24.67
2019-05-05T06:37:57.731Z,24.59
2019-05-05T06:38:59.138Z,24.56
2019-05-05T06:40:03.795Z,24.42
2019-05-05T06:41:23.827Z,24.39
2019-05-05T06:42:44.013Z,24.31
2019-05-05T06:43:56.271Z,24.25
2019-05-05T06:45:05.432Z,24.19
2019-05-05T06:46:14.667Z,24.16
2019-05-05T06:47:17.984Z,24.11
2019-05-05T06:48:19.376Z,24.07
2019-05-05T06:49:20.791Z,24.05
2019-05-05T06:50:24.177Z,24.07
2019-05-05T06:51:25.521Z,24.03
2019-05-05T06:52:27.334Z,23.97
2019-05-05T06:53:28.738Z,23.92
2019-05-05T06:54:30.113Z,23.83
2019-05-05T06:55:31.500Z,23.80
2019-05-05T06:56:34.250Z,23.80
2019-05-05T06:57:35.636Z,23.77
2019-05-05T06:58:37.020Z,23.70
2019-05-05T06:59:38.416Z,23.64
2019-05-05T07:00:39.830Z,23.62
2019-05-05T07:01:41.198Z,23.58
2019-05-05T07:02:44.388Z,23.58
2019-05-05T07:03:45.876Z,23.52
2019-05-05T07:04:47.253Z,23.52
2019-05-05T07:05:48.653Z,23.51
2019-05-05T07:06:54.136Z,23.43
2019-05-05T07:07:53.816Z,23.42
2019-05-05T07:08:55.256Z,23.39
2019-05-05T07:09:56.706Z,23.38
2019-05-05T07:10:58.117Z,23.40
2019-05-05T07:11:59.527Z,23.39
2019-05-05T07:13:00.936Z,23.40
2019-05-05T07:14:03.737Z,23.43
2019-05-05T07:15:06.325Z,23.39
2019-05-05T07:16:07.725Z,23.34
2019-05-05T07:17:09.102Z,23.30
2019-05-05T07:18:10.515Z,23.33
2019-05-05T07:19:11.914Z,23.33
2019-05-05T07:20:13.679Z,23.34
2019-05-05T07:21:15.199Z,23.33
2019-05-05T07:22:17.762Z,23.32
2019-05-05T07:23:19.276Z,23.31
2019-05-05T07:24:20.661Z,23.32
2019-05-05T07:25:24.096Z,23.30
2019-05-05T07:26:25.426Z,23.31
2019-05-05T07:27:26.884Z,23.29
2019-05-05T07:28:28.268Z,23.33
2019-05-05T07:29:29.672Z,23.28
2019-05-05T07:30:31.161Z,23.31
2019-05-05T07:31:34.275Z,23.30
2019-05-05T07:32:35.849Z,23.43
2019-05-05T07:33:37.249Z,23.41
2019-05-05T07:34:46.422Z,23.44
2019-05-05T07:35:59.379Z,23.48
2019-05-05T07:36:55.949Z,23.46
2019-05-05T07:37:57.435Z,23.46
2019-05-05T07:38:58.832Z,23.43
2019-05-05T07:40:00.270Z,23.45
2019-05-05T07:41:03.613Z,23.44
2019-05-05T07:42:04.955Z,23.43
2019-05-05T07:43:06.330Z,23.42
2019-05-05T07:44:07.728Z,23.41
2019-05-05T07:45:20.273Z,23.43
2019-05-05T07:46:13.599Z,23.38
2019-05-05T07:47:15.117Z,23.36
2019-05-05T07:48:16.505Z,23.40
2019-05-05T07:49:17.894Z,23.43
2019-05-05T07:50:31.195Z,23.39
2019-05-05T07:51:24.231Z,23.33
2019-05-05T07:52:25.795Z,23.30
2019-05-05T07:53:28.162Z,23.30
2019-05-05T07:54:29.604Z,23.33
2019-05-05T07:55:31.100Z,23.36
2019-05-05T07:56:34.365Z,23.37
2019-05-05T07:57:36.056Z,23.37
2019-05-05T07:58:37.433Z,23.37
2019-05-05T07:59:38.846Z,23.38
2019-05-05T08:00:40.324Z,23.34
2019-05-05T08:01:45.860Z,23.38
2019-05-05T08:02:45.051Z,23.31
2019-05-05T08:03:47.558Z,23.31
2019-05-05T08:04:48.973Z,23.36
2019-05-05T08:05:50.381Z,23.37
2019-05-05T08:06:53.773Z,23.36
2019-05-05T08:07:55.064Z,23.35
2019-05-05T08:08:56.441Z,23.39
2019-05-05T08:09:57.881Z,23.34
2019-05-05T08:10:59.382Z,23.37
2019-05-05T08:12:00.788Z,23.38
2019-05-05T08:13:04.479Z,23.35
2019-05-05T08:14:06.611Z,23.34
2019-05-05T08:15:08.412Z,23.36
2019-05-05T08:16:20.577Z,23.36
2019-05-05T08:17:26.612Z,23.35
2019-05-05T08:18:34.558Z,23.38
2019-05-05T08:19:37.911Z,23.32
2019-05-05T08:20:41.217Z,23.38
2019-05-05T08:21:43.718Z,23.42
2019-05-05T08:22:45.195Z,23.38
2019-05-05T08:23:48.501Z,23.40
2019-05-05T08:25:07.084Z,23.43
2019-05-05T08:26:13.744Z,23.40
2019-05-05T08:27:21.080Z,23.38
2019-05-05T08:28:24.613Z,23.38
2019-05-05T08:29:34.551Z,23.45
2019-05-05T08:30:38.145Z,23.46
2019-05-05T08:31:47.327Z,23.46
2019-05-05T08:32:50.631Z,23.46
2019-05-05T08:33:54.661Z,23.45
2019-05-05T08:35:00.504Z,23.47
2019-05-05T08:35:59.479Z,23.52
2019-05-05T08:37:00.976Z,23.53
2019-05-05T08:38:04.473Z,23.53
2019-05-05T08:39:05.877Z,23.52
2019-05-05T08:40:08.086Z,23.55
2019-05-05T08:41:09.493Z,23.53
2019-05-05T08:42:10.905Z,23.56
2019-05-05T08:43:13.816Z,23.49
2019-05-05T08:44:18.046Z,23.46
2019-05-05T08:45:19.523Z,23.39
2019-05-05T08:46:20.997Z,23.39
2019-05-05T08:47:24.432Z,23.42
2019-05-05T08:48:25.692Z,23.45
2019-05-05T08:49:27.112Z,23.43
2019-05-05T08:50:28.524Z,23.37
2019-05-05T08:51:29.936Z,23.35
2019-05-05T08:52:31.342Z,23.32
2019-05-05T08:53:44.175Z,23.35
2019-05-05T08:54:36.127Z,23.35
2019-05-05T08:55:37.644Z,23.32
2019-05-05T08:56:39.128Z,23.32
2019-05-05T08:57:40.532Z,23.33
2019-05-05T08:58:43.763Z,23.37
2019-05-05T08:59:45.390Z,23.39
2019-05-05T09:00:46.764Z,23.34
2019-05-05T09:01:48.146Z,23.34
2019-05-05T09:02:49.523Z,23.34
2019-05-05T09:03:51.030Z,23.33
2019-05-05T09:04:53.750Z,23.37
2019-05-05T09:05:55.328Z,23.40
2019-05-05T09:06:56.722Z,23.41
2019-05-05T09:07:58.108Z,23.39
2019-05-05T09:08:59.673Z,23.37
2019-05-05T09:10:01.052Z,23.38
2019-05-05T09:11:04.534Z,23.39
2019-05-05T09:12:05.724Z,23.41
2019-05-05T09:13:07.128Z,23.36
2019-05-05T09:14:08.512Z,23.33
2019-05-05T09:15:11.196Z,23.40
2019-05-05T09:16:14.378Z,23.34
2019-05-05T09:17:15.892Z,23.36
2019-05-05T09:18:17.287Z,23.37
2019-05-05T09:19:20.029Z,23.34
2019-05-05T09:20:21.436Z,23.40
2019-05-05T09:21:23.974Z,23.41
2019-05-05T09:22:25.563Z,23.44
2019-05-05T09:23:27.372Z,23.40
2019-05-05T09:24:47.072Z,23.36
2019-05-05T09:25:53.968Z,23.38
2019-05-05T09:27:09.308Z,23.25
2019-05-05T09:28:27.496Z,23.28
2019-05-05T09:29:36.605Z,23.31
2019-05-05T09:30:40.182Z,23.31
2019-05-05T09:31:41.599Z,23.33
2019-05-05T09:32:43.872Z,23.32
2019-05-05T09:33:45.373Z,23.34
2019-05-05T09:34:46.856Z,23.35
2019-05-05T09:35:48.265Z,23.35
2019-05-05T09:36:49.673Z,23.34
2019-05-05T09:37:53.536Z,23.38
2019-05-05T09:38:54.528Z,23.40
2019-05-05T09:39:56.070Z,23.41
2019-05-05T09:40:57.448Z,23.38
2019-05-05T09:41:58.844Z,23.32
2019-05-05T09:43:00.229Z,23.38
2019-05-05T09:44:01.625Z,23.38
2019-05-05T09:45:05.283Z,23.37
2019-05-05T09:46:06.680Z,23.42
2019-05-05T09:47:08.093Z,23.37
2019-05-05T09:48:09.610Z,23.34
2019-05-05T09:49:11.015Z,23.33
2019-05-05T09:50:14.375Z,23.31
2019-05-05T09:51:15.800Z,23.32
2019-05-05T09:52:17.196Z,23.34
2019-05-05T09:53:18.676Z,23.30
2019-05-05T09:54:20.172Z,23.30
2019-05-05T09:55:21.664Z,23.33
2019-05-05T09:56:23.609Z,23.34
2019-05-05T09:57:25.269Z,23.35
2019-05-05T09:58:26.787Z,23.34
2019-05-05T09:59:28.272Z,23.38
2019-05-05T10:00:33.543Z,23.45
2019-05-05T10:01:35.088Z,23.43
2019-05-05T10:02:36.489Z,23.40
2019-05-05T10:03:37.859Z,23.37
2019-05-05T10:04:39.255Z,23.37
2019-05-05T10:05:40.636Z,23.44
2019-05-05T10:06:45.656Z,23.42
2019-05-05T10:07:45.311Z,23.49
2019-05-05T10:08:46.709Z,23.46
2019-05-05T10:09:48.083Z,23.47
2019-05-05T10:10:49.526Z,23.51
2019-05-05T10:11:50.935Z,23.51
2019-05-05T10:12:54.881Z,23.48
2019-05-05T10:13:55.671Z,23.48
2019-05-05T10:14:57.086Z,23.51
2019-05-05T10:15:58.605Z,23.53
2019-05-05T10:17:00.077Z,23.46
2019-05-05T10:18:03.385Z,23.52
2019-05-05T10:19:04.757Z,23.55
2019-05-05T10:20:06.658Z,23.53
2019-05-05T10:21:08.068Z,23.49
2019-05-05T10:22:09.483Z,23.50
2019-05-05T10:23:10.904Z,23.45
2019-05-05T10:24:31.305Z,23.44
2019-05-05T10:25:38.208Z,23.44
2019-05-05T10:26:39.611Z,23.39
2019-05-05T10:27:44.931Z,23.44
2019-05-05T10:28:44.555Z,23.48
2019-05-05T10:29:45.953Z,23.48
2019-05-05T10:30:47.521Z,23.52
2019-05-05T10:31:48.932Z,23.51
2019-05-05T10:32:50.463Z,23.51
2019-05-05T10:33:57.268Z,23.47
2019-05-05T10:35:00.581Z,23.50
2019-05-05T10:36:01.990Z,23.42
2019-05-05T10:37:04.206Z,23.42
2019-05-05T10:38:05.783Z,23.44
2019-05-05T10:39:25.753Z,23.42
2019-05-05T10:40:29.041Z,23.40
2019-05-05T10:41:30.441Z,23.40
2019-05-05T10:42:50.341Z,23.44
2019-05-05T10:43:51.752Z,23.50
2019-05-05T10:44:53.815Z,23.39
2019-05-05T10:45:55.379Z,23.40
2019-05-05T10:46:56.787Z,23.45
2019-05-05T10:47:58.301Z,23.44
2019-05-05T10:48:59.975Z,23.43
2019-05-05T10:50:01.995Z,23.39
2019-05-05T10:51:04.175Z,23.36
2019-05-05T10:52:05.761Z,23.37
2019-05-05T10:53:07.177Z,23.33
2019-05-05T10:54:08.684Z,23.34
2019-05-05T10:55:10.393Z,23.33
2019-05-05T10:56:13.730Z,23.30
2019-05-05T10:57:18.312Z,23.27
2019-05-05T10:58:18.524Z,23.30
2019-05-05T10:59:20.005Z,23.31
2019-05-05T11:00:44.438Z,23.34
2019-05-05T11:01:46.092Z,23.35
2019-05-05T11:02:47.473Z,23.29
2019-05-05T11:03:48.857Z,23.36
2019-05-05T11:04:50.241Z,23.37
2019-05-05T11:05:53.481Z,23.34
2019-05-05T11:06:55.325Z,23.36
2019-05-05T11:07:56.816Z,23.34
2019-05-05T11:08:58.413Z,23.33
2019-05-05T11:09:59.788Z,23.33
2019-05-05T11:11:01.232Z,23.34
2019-05-05T11:12:02.646Z,23.34
2019-05-05T11:13:04.061Z,23.38
2019-05-05T11:14:05.469Z,23.37
2019-05-05T11:15:06.943Z,23.41
2019-05-05T11:16:08.339Z,23.44
2019-05-05T11:17:09.715Z,23.51
2019-05-05T11:18:11.209Z,23.50
2019-05-05T11:19:13.642Z,23.43
2019-05-05T11:20:15.300Z,23.45
2019-05-05T11:21:16.818Z,23.46
2019-05-05T11:22:18.239Z,23.47
2019-05-05T11:23:19.653Z,23.49
2019-05-05T11:24:21.048Z,23.46
2019-05-05T11:25:24.266Z,23.43
2019-05-05T11:26:25.725Z,23.49
2019-05-05T11:27:27.096Z,23.43
2019-05-05T11:28:28.493Z,23.45
2019-05-05T11:29:29.888Z,23.41
2019-05-05T11:30:35.603Z,23.37
2019-05-05T11:31:36.992Z,23.32
2019-05-05T11:32:56.840Z,23.32
2019-05-05T11:34:00.118Z,23.29
2019-05-05T11:35:01.822Z,23.31
2019-05-05T11:36:08.610Z,23.33
2019-05-05T11:37:11.914Z,23.37
2019-05-05T11:38:14.190Z,23.39
2019-05-05T11:39:15.702Z,23.39
2019-05-05T11:40:19.000Z,23.41
2019-05-05T11:41:20.387Z,23.38
2019-05-05T11:42:23.725Z,23.36
2019-05-05T11:43:25.074Z,23.37
2019-05-05T11:44:26.462Z,23.42
2019-05-05T11:45:27.953Z,23.39
2019-05-05T11:46:29.484Z,23.42
2019-05-05T11:47:30.872Z,23.45
2019-05-05T11:48:34.355Z,23.48
2019-05-05T11:49:35.554Z,23.52
2019-05-05T11:50:37.046Z,23.60
2019-05-05T11:51:38.437Z,23.66
2019-05-05T11:52:39.827Z,23.72
2019-05-05T11:53:41.220Z,23.72
2019-05-05T11:54:43.875Z,23.75
2019-05-05T11:55:45.616Z,23.68
2019-05-05T11:56:46.999Z,23.70
2019-05-05T11:57:48.398Z,23.67
2019-05-05T11:58:49.773Z,23.73
2019-05-05T11:59:51.177Z,23.76
2019-05-05T12:00:54.564Z,23.75
2019-05-05T12:01:56.269Z,23.78
2019-05-05T12:02:58.505Z,23.79
2019-05-05T12:04:01.480Z,23.81
2019-05-05T12:05:04.642Z,23.86
2019-05-05T12:06:06.088Z,23.86
2019-05-05T12:07:07.506Z,23.85
2019-05-05T12:08:08.922Z,23.86
2019-05-05T12:09:13.984Z,23.91
2019-05-05T12:10:26.520Z,23.96
2019-05-05T12:11:27.916Z,23.99
2019-05-05T12:12:29.289Z,24.00
2019-05-05T12:13:31.686Z,24.04
2019-05-05T12:14:33.161Z,24.02
2019-05-05T12:15:34.661Z,24.04
2019-05-05T12:16:36.051Z,24.00
2019-05-05T12:17:37.561Z,24.01
2019-05-05T12:18:38.974Z,23.97
2019-05-05T12:19:40.502Z,23.94
2019-05-05T12:20:44.019Z,23.97
2019-05-05T12:21:45.403Z,23.99
2019-05-05T12:22:47.780Z,23.99
2019-05-05T12:23:49.182Z,23.98
2019-05-05T12:24:50.681Z,23.98
2019-05-05T12:25:57.412Z,23.97
2019-05-05T12:27:09.841Z,24.04
2019-05-05T12:28:25.499Z,24.04
2019-05-05T12:29:27.044Z,24.03
2019-05-05T12:30:30.279Z,24.02
2019-05-05T12:31:34.031Z,24.05
2019-05-05T12:32:35.500Z,24.13
2019-05-05T12:33:37.055Z,24.14
2019-05-05T12:34:38.446Z,24.18
2019-05-05T12:35:39.833Z,24.19
2019-05-05T12:36:41.217Z,24.20
2019-05-05T12:37:44.490Z,24.24
2019-05-05T12:38:46.022Z,24.21
2019-05-05T12:39:47.416Z,24.19
2019-05-05T12:40:48.799Z,24.16
2019-05-05T12:41:50.199Z,24.14
2019-05-05T12:42:51.622Z,24.11
2019-05-05T12:43:54.922Z,24.11
2019-05-05T12:44:58.218Z,24.09
2019-05-05T12:46:18.329Z,24.06
2019-05-05T12:47:24.417Z,24.08
2019-05-05T12:48:30.434Z,24.07
2019-05-05T12:49:33.717Z,24.12
2019-05-05T12:50:35.210Z,24.14
2019-05-05T12:51:36.613Z,24.17
2019-05-05T12:52:38.105Z,24.20
2019-05-05T12:53:39.521Z,24.18
2019-05-05T12:54:40.904Z,24.15
2019-05-05T12:55:44.426Z,24.19
2019-05-05T12:56:45.594Z,24.19
2019-05-05T12:57:47.075Z,24.23
2019-05-05T12:58:49.771Z,24.20
2019-05-05T12:59:51.144Z,24.20
2019-05-05T13:00:54.444Z,24.18
2019-05-05T13:01:55.925Z,24.15
2019-05-05T13:02:57.314Z,24.18
2019-05-05T13:03:59.039Z,24.13
2019-05-05T13:05:00.530Z,24.15
2019-05-05T13:06:03.986Z,24.18
2019-05-05T13:07:08.266Z,24.19
2019-05-05T13:08:09.649Z,24.19
2019-05-05T13:09:13.543Z,24.17
2019-05-05T13:10:18.142Z,24.16
2019-05-05T13:11:19.949Z,24.17
2019-05-05T13:12:21.315Z,24.17
2019-05-05T13:13:22.818Z,24.17
2019-05-05T13:14:24.336Z,24.15
2019-05-05T13:15:26.746Z,24.12
2019-05-05T13:16:28.257Z,24.08
2019-05-05T13:17:29.682Z,24.05
2019-05-05T13:18:31.086Z,24.09
2019-05-05T13:19:37.434Z,24.11
2019-05-05T13:20:41.704Z,24.05
2019-05-05T13:21:47.765Z,24.07
2019-05-05T13:23:07.949Z,24.01
2019-05-05T13:24:20.232Z,24.06
2019-05-05T13:25:23.524Z,24.06
2019-05-05T13:26:35.453Z,24.08
2019-05-05T13:27:38.768Z,24.15
2019-05-05T13:28:40.185Z,24.18
2019-05-05T13:29:41.592Z,24.22
2019-05-05T13:30:43.528Z,24.24
2019-05-05T13:31:44.988Z,24.32
2019-05-05T13:32:47.224Z,24.35
2019-05-05T13:33:48.668Z,24.38
2019-05-05T13:34:50.329Z,24.48